createdAt,value
2018-10-06T00:00:17.588Z,19.10
2018-10-06T00:02:45.893Z,19.48
2018-10-06T00:05:14.200Z,16.02
2018-10-06T00:07:42.583Z,16.48
2018-10-06T00:10:10.899Z,20.45
2018-10-06T00:12:39.321Z,17.10
2018-10-06T00:15:07.759Z,11.60
2018-10-06T00:17:36.215Z,15.03
2018-10-06T00:20:10.991Z,16.82
2018-10-06T00:22:46.326Z,12.65
2018-10-06T00:25:14.590Z,16.12
2018-10-06T00:27:43.244Z,18.82
2018-10-06T00:30:11.540Z,17.05
2018-10-06T00:32:39.889Z,12.37
2018-10-06T00:35:08.262Z,15.58
2018-10-06T00:37:36.533Z,16.15
2018-10-06T00:40:04.908Z,13.35
2018-10-06T00:42:33.503Z,15.28
2018-10-06T00:45:01.905Z,15.13
2018-10-06T00:47:30.323Z,18.35
2018-10-06T00:49:58.608Z,13.40
2018-10-06T00:52:26.905Z,17.92
2018-10-06T00:54:55.319Z,11.28
2018-10-06T00:57:23.734Z,18.20
2018-10-06T00:59:52.239Z,13.70
2018-10-06T01:02:20.486Z,12.18
2018-10-06T01:04:48.779Z,15.45
2018-10-06T01:07:17.070Z,14.40
2018-10-06T01:09:45.511Z,12.82
2018-10-06T01:12:13.816Z,14.40
2018-10-06T01:14:42.097Z,11.50
2018-10-06T01:17:10.488Z,15.50
2018-10-06T01:19:39.047Z,16.15
2018-10-06T01:22:07.602Z,16.93
2018-10-06T01:24:35.926Z,13.25
2018-10-06T01:27:04.186Z,13.90
2018-10-06T01:29:33.523Z,20.37
2018-10-06T01:32:03.454Z,12.88
2018-10-06T01:34:31.879Z,13.53
2018-10-06T01:37:00.602Z,21.85
2018-10-06T01:39:29.190Z,14.35
2018-10-06T01:41:57.592Z,11.83
2018-10-06T01:44:25.896Z,17.75
2018-10-06T01:46:54.210Z,15.98
2018-10-06T01:49:22.653Z,16.87
2018-10-06T01:51:51.317Z,13.88
2018-10-06T01:54:20.127Z,15.23
2018-10-06T01:56:48.522Z,19.20
2018-10-06T01:59:16.948Z,15.20
2018-10-06T02:01:45.445Z,18.55
2018-10-06T02:04:13.849Z,22.90
2018-10-06T02:06:42.354Z,15.13
2018-10-06T02:09:10.754Z,15.63
2018-10-06T02:11:39.034Z,16.30
2018-10-06T02:14:07.309Z,17.12
2018-10-06T02:16:35.617Z,13.40
2018-10-06T02:19:04.024Z,17.27
2018-10-06T02:21:32.374Z,17.42
2018-10-06T02:24:00.678Z,17.25
2018-10-06T02:26:28.956Z,17.92
2018-10-06T02:28:57.333Z,19.20
2018-10-06T02:31:25.738Z,17.60
2018-10-06T02:33:54.221Z,14.40
2018-10-06T02:36:22.593Z,24.27
2018-10-06T02:38:51.034Z,18.07
2018-10-06T02:41:19.636Z,17.50
2018-10-06T02:43:47.956Z,18.37
2018-10-06T02:46:16.291Z,15.50
2018-10-06T02:48:44.710Z,18.90
2018-10-06T02:51:12.971Z,15.38
2018-10-06T02:53:41.360Z,24.18
2018-10-06T02:56:09.607Z,14.95
2018-10-06T02:58:37.909Z,17.52
2018-10-06T03:01:06.903Z,21.05
2018-10-06T03:03:35.200Z,19.80
2018-10-06T03:06:03.497Z,19.12
2018-10-06T03:08:31.816Z,19.85
2018-10-06T03:11:00.244Z,22.07
2018-10-06T03:13:28.644Z,23.00
2018-10-06T03:15:57.191Z,16.15
2018-10-06T03:18:25.655Z,22.27
2018-10-06T03:20:54.326Z,20.77
2018-10-06T03:23:22.628Z,22.30
2018-10-06T03:25:50.895Z,19.27
2018-10-06T03:28:19.237Z,21.68
2018-10-06T03:30:47.739Z,16.77
2018-10-06T03:33:16.062Z,21.75
2018-10-06T03:35:44.343Z,17.55
2018-10-06T03:38:12.695Z,16.27
2018-10-06T03:40:40.952Z,17.02
2018-10-06T03:43:09.216Z,20.60
2018-10-06T03:45:37.496Z,22.05
2018-10-06T03:48:05.876Z,19.65
2018-10-06T03:50:34.272Z,21.35
2018-10-06T03:53:02.900Z,18.57
2018-10-06T03:55:31.438Z,20.62
2018-10-06T03:57:59.949Z,20.68
2018-10-06T04:00:28.264Z,18.10
2018-10-06T04:02:56.546Z,22.40
2018-10-06T04:05:24.951Z,18.98
2018-10-06T04:07:53.343Z,24.12
2018-10-06T04:10:21.609Z,20.52
2018-10-06T04:12:49.984Z,18.00
2018-10-06T04:15:18.265Z,23.62
2018-10-06T04:17:46.594Z,22.10
2018-10-06T04:20:14.843Z,21.35
2018-10-06T04:22:43.233Z,19.70
2018-10-06T04:25:11.574Z,22.17
2018-10-06T04:27:39.949Z,20.80
2018-10-06T04:30:09.257Z,17.95
2018-10-06T04:32:37.828Z,20.60
2018-10-06T04:35:06.189Z,20.80
2018-10-06T04:37:34.488Z,17.15
2018-10-06T04:40:02.778Z,16.60
2018-10-06T04:42:31.044Z,18.90
2018-10-06T04:44:59.419Z,18.57
2018-10-06T04:47:27.730Z,23.32
2018-10-06T04:49:56.077Z,22.32
2018-10-06T04:52:24.482Z,22.25
2018-10-06T04:54:52.763Z,20.77
2018-10-06T04:57:21.036Z,19.10
2018-10-06T04:59:49.319Z,21.15
2018-10-06T05:02:17.685Z,19.52
2018-10-06T05:04:46.188Z,23.55
2018-10-06T05:07:14.556Z,19.25
2018-10-06T05:09:42.888Z,20.10
2018-10-06T05:12:11.175Z,17.85
2018-10-06T05:14:39.468Z,22.00
2018-10-06T05:17:07.775Z,19.62
2018-10-06T05:19:36.054Z,16.85
2018-10-06T05:22:04.423Z,17.00
2018-10-06T05:24:32.714Z,21.37
2018-10-06T05:27:01.032Z,17.10
2018-10-06T05:29:29.897Z,18.73
2018-10-06T05:31:58.250Z,18.75
2018-10-06T05:34:26.555Z,18.07
2018-10-06T05:36:54.813Z,24.00
2018-10-06T05:39:23.124Z,19.50
2018-10-06T05:41:51.549Z,18.82
2018-10-06T05:44:19.935Z,24.98
2018-10-06T05:46:48.254Z,21.07
2018-10-06T05:49:16.616Z,19.95
2018-10-06T05:51:45.117Z,20.20
2018-10-06T05:54:13.380Z,20.65
2018-10-06T05:56:41.703Z,20.80
2018-10-06T05:59:10.165Z,21.17
2018-10-06T06:01:38.394Z,21.60
2018-10-06T06:04:06.718Z,22.20
2018-10-06T06:06:35.025Z,21.35
2018-10-06T06:09:03.592Z,20.70
2018-10-06T06:11:31.909Z,21.12
2018-10-06T06:14:00.219Z,25.52
2018-10-06T06:16:28.602Z,17.60
2018-10-06T06:18:57.257Z,19.50
2018-10-06T06:21:25.786Z,21.68
2018-10-06T06:23:54.196Z,27.85
2018-10-06T06:26:22.456Z,20.12
2018-10-06T06:28:50.768Z,23.35
2018-10-06T06:31:19.092Z,28.42
2018-10-06T06:33:47.392Z,26.73
2018-10-06T06:36:15.675Z,37.08
2018-10-06T06:38:43.952Z,20.70
2018-10-06T06:41:12.570Z,20.90
2018-10-06T06:43:40.979Z,23.95
2018-10-06T06:46:09.443Z,29.15
2018-10-06T06:48:37.793Z,21.70
2018-10-06T06:51:06.086Z,20.80
2018-10-06T06:53:34.487Z,17.70
2018-10-06T06:56:02.931Z,18.57
2018-10-06T06:58:31.590Z,22.48
2018-10-06T07:01:00.556Z,20.32
2018-10-06T07:03:28.992Z,20.50
2018-10-06T07:05:57.381Z,22.48
2018-10-06T07:08:25.695Z,17.82
2018-10-06T07:10:53.995Z,20.82
2018-10-06T07:13:22.476Z,19.80
2018-10-06T07:15:50.789Z,20.65
2018-10-06T07:18:19.209Z,19.00
2018-10-06T07:20:47.594Z,17.15
2018-10-06T07:23:15.833Z,20.35
2018-10-06T07:25:44.153Z,18.42
2018-10-06T07:28:12.483Z,19.05
2018-10-06T07:30:40.889Z,18.80
2018-10-06T07:33:09.385Z,16.60
2018-10-06T07:35:37.863Z,18.02
2018-10-06T07:38:06.223Z,18.35
2018-10-06T07:40:34.541Z,17.65
2018-10-06T07:43:02.832Z,17.27
2018-10-06T07:45:31.172Z,19.52
2018-10-06T07:47:59.443Z,18.90
2018-10-06T07:50:28.432Z,17.20
2018-10-06T07:52:56.764Z,18.82
2018-10-06T07:55:25.082Z,14.30
2018-10-06T07:57:53.414Z,18.00
2018-10-06T08:00:21.970Z,14.95
2018-10-06T08:02:50.345Z,19.52
2018-10-06T08:05:18.819Z,17.65
2018-10-06T08:07:47.200Z,16.20
2018-10-06T08:10:15.912Z,15.50
2018-10-06T08:12:44.359Z,13.03
2018-10-06T08:15:13.641Z,14.73
2018-10-06T08:17:41.988Z,14.15
2018-10-06T08:20:10.289Z,12.28
2018-10-06T08:22:38.664Z,15.93
2018-10-06T08:25:07.218Z,23.02
2018-10-06T08:27:35.566Z,17.00
2018-10-06T08:30:03.851Z,18.70
2018-10-06T08:32:32.109Z,16.25
2018-10-06T08:35:00.397Z,13.05
2018-10-06T08:37:28.657Z,15.98
2018-10-06T08:39:57.011Z,13.25
2018-10-06T08:42:25.349Z,14.85
2018-10-06T08:44:53.721Z,14.28
2018-10-06T08:47:22.077Z,11.25
2018-10-06T08:49:50.481Z,13.45
2018-10-06T08:52:18.950Z,13.68
2018-10-06T08:54:47.367Z,11.88
2018-10-06T08:57:16.051Z,10.23
2018-10-06T08:59:44.650Z,11.78
2018-10-06T09:02:12.996Z,14.35
2018-10-06T09:04:41.245Z,13.00
2018-10-06T09:07:09.556Z,20.88
2018-10-06T09:09:37.902Z,11.93
2018-10-06T09:12:06.333Z,16.23
2018-10-06T09:14:34.670Z,9.18
2018-10-06T09:17:03.009Z,15.28
2018-10-06T09:19:31.299Z,13.70
2018-10-06T09:21:59.574Z,9.50
2018-10-06T09:24:27.872Z,9.78
2018-10-06T09:26:56.549Z,10.75
2018-10-06T09:29:24.938Z,11.93
2018-10-06T09:31:53.743Z,7.58
2018-10-06T09:34:22.076Z,14.53
2018-10-06T09:36:50.381Z,12.80
2018-10-06T09:39:18.677Z,11.00
2018-10-06T09:41:46.971Z,10.60
2018-10-06T09:44:15.198Z,7.47
2018-10-06T09:46:43.579Z,11.40
2018-10-06T09:49:11.884Z,9.63
2018-10-06T09:51:40.188Z,12.47
2018-10-06T09:54:15.314Z,9.98
2018-10-06T09:56:44.699Z,8.90
2018-10-06T09:59:12.967Z,6.95
2018-10-06T10:01:46.675Z,8.88
2018-10-06T10:04:16.423Z,7.08
2018-10-06T10:06:44.717Z,11.25
2018-10-06T10:09:14.418Z,6.58
2018-10-06T10:11:42.715Z,8.13
2018-10-06T10:14:11.531Z,15.35
2018-10-06T10:16:39.814Z,4.30
2018-10-06T10:19:08.084Z,4.97
2018-10-06T10:21:36.498Z,8.63
2018-10-06T10:24:04.828Z,4.87
2018-10-06T10:26:33.331Z,6.35
2018-10-06T10:29:02.255Z,4.75
2018-10-06T10:31:30.551Z,5.72
2018-10-06T10:33:58.823Z,5.67
2018-10-06T10:36:27.229Z,7.72
2018-10-06T10:38:55.611Z,7.20
2018-10-06T10:41:23.888Z,7.53
2018-10-06T10:43:52.280Z,6.37
2018-10-06T10:46:20.598Z,4.78
2018-10-06T10:48:49.053Z,6.83
2018-10-06T10:51:17.438Z,7.35
2018-10-06T10:53:46.750Z,6.95
2018-10-06T10:56:15.142Z,8.60
2018-10-06T10:58:46.744Z,10.70
2018-10-06T11:01:15.174Z,6.47
2018-10-06T11:03:44.198Z,5.87
2018-10-06T11:06:12.557Z,9.88
2018-10-06T11:08:41.246Z,6.97
2018-10-06T11:11:09.672Z,9.23
2018-10-06T11:13:37.950Z,12.80
2018-10-06T11:16:06.235Z,3.65
2018-10-06T11:18:34.688Z,6.92
2018-10-06T11:21:03.070Z,5.80
2018-10-06T11:23:31.453Z,5.67
2018-10-06T11:25:59.784Z,5.15
2018-10-06T11:28:28.212Z,7.22
2018-10-06T11:30:56.518Z,4.72
2018-10-06T11:33:24.875Z,20.75
2018-10-06T11:35:53.298Z,4.28
2018-10-06T11:38:21.644Z,11.33
2018-10-06T11:40:50.082Z,4.35
2018-10-06T11:43:18.522Z,4.30
2018-10-06T11:45:53.822Z,3.47
2018-10-06T11:48:24.385Z,8.23
2018-10-06T11:50:52.768Z,6.90
2018-10-06T11:53:21.188Z,4.80
2018-10-06T11:55:49.627Z,9.45
2018-10-06T11:58:18.076Z,7.42
2018-10-06T12:00:46.502Z,10.40
2018-10-06T12:03:18.903Z,7.58
2018-10-06T12:05:47.394Z,9.03
2018-10-06T12:08:15.696Z,9.60
2018-10-06T12:10:44.093Z,8.98
2018-10-06T12:13:12.387Z,5.42
2018-10-06T12:15:40.644Z,4.67
2018-10-06T12:18:08.929Z,6.67
2018-10-06T12:20:37.870Z,5.62
2018-10-06T12:23:06.363Z,5.33
2018-10-06T12:25:34.648Z,6.53
2018-10-06T12:28:02.965Z,4.35
2018-10-06T12:30:31.235Z,6.92
2018-10-06T12:32:59.571Z,9.88
2018-10-06T12:35:28.052Z,6.75
2018-10-06T12:37:56.388Z,7.45
2018-10-06T12:40:24.744Z,10.48
2018-10-06T12:42:53.116Z,3.58
2018-10-06T12:45:21.417Z,4.00
2018-10-06T12:47:49.722Z,10.85
2018-10-06T12:50:18.034Z,7.60
2018-10-06T12:52:46.384Z,4.15
2018-10-06T12:55:20.567Z,4.15
2018-10-06T12:57:48.872Z,5.72
2018-10-06T13:00:17.225Z,4.67
2018-10-06T13:02:46.433Z,4.50
2018-10-06T13:05:15.832Z,9.40
2018-10-06T13:07:44.365Z,5.87
2018-10-06T13:10:12.720Z,7.08
2018-10-06T13:12:41.064Z,6.25
2018-10-06T13:15:09.430Z,6.28
2018-10-06T13:17:37.915Z,7.75
2018-10-06T13:20:06.396Z,6.90
2018-10-06T13:22:34.860Z,10.05
2018-10-06T13:25:03.295Z,9.73
2018-10-06T13:27:31.806Z,6.78
2018-10-06T13:30:00.251Z,7.03
2018-10-06T13:32:28.703Z,10.20
2018-10-06T13:34:57.041Z,10.98
2018-10-06T13:37:26.155Z,8.25
2018-10-06T13:39:54.840Z,5.85
2018-10-06T13:42:23.119Z,4.10
2018-10-06T13:44:51.460Z,9.63
2018-10-06T13:47:19.836Z,4.33
2018-10-06T13:49:48.245Z,3.80
2018-10-06T13:52:16.610Z,2.35
2018-10-06T13:54:45.015Z,3.20
2018-10-06T13:57:13.383Z,4.87
2018-10-06T13:59:41.684Z,4.05
2018-10-06T14:02:10.037Z,13.10
2018-10-06T14:04:38.433Z,2.90
2018-10-06T14:07:07.736Z,5.45
2018-10-06T14:09:36.049Z,5.70
2018-10-06T14:12:04.644Z,5.78
2018-10-06T14:14:32.927Z,8.20
2018-10-06T14:17:01.253Z,7.78
2018-10-06T14:19:29.574Z,12.18
2018-10-06T14:21:57.989Z,3.65
2018-10-06T14:24:26.463Z,4.47
2018-10-06T14:26:54.811Z,9.35
2018-10-06T14:29:23.213Z,5.55
2018-10-06T14:31:51.648Z,8.93
2018-10-06T14:34:20.060Z,7.90
2018-10-06T14:36:48.680Z,8.38
2018-10-06T14:39:17.088Z,7.37
2018-10-06T14:41:45.554Z,11.90
2018-10-06T14:44:29.525Z,8.00
2018-10-06T14:46:57.803Z,5.55
2018-10-06T14:49:26.366Z,7.40
2018-10-06T14:51:55.604Z,12.53
2018-10-06T14:54:23.973Z,7.97
2018-10-06T14:56:52.343Z,5.03
2018-10-06T14:59:29.368Z,6.70
2018-10-06T15:01:57.643Z,6.53
2018-10-06T15:04:26.667Z,11.78
2018-10-06T15:06:55.807Z,10.78
2018-10-06T15:09:24.174Z,7.33
2018-10-06T15:11:52.958Z,7.17
2018-10-06T15:14:21.279Z,9.43
2018-10-06T15:16:50.357Z,6.15
2018-10-06T15:19:18.724Z,7.62
2018-10-06T15:21:47.038Z,9.33
2018-10-06T15:24:15.420Z,4.92
2018-10-06T15:26:43.771Z,9.30
2018-10-06T15:29:12.088Z,7.40
2018-10-06T15:31:40.418Z,8.88
2018-10-06T15:34:08.721Z,10.70
2018-10-06T15:36:37.025Z,10.72
2018-10-06T15:39:07.311Z,12.20
2018-10-06T15:41:35.631Z,9.28
2018-10-06T15:44:03.899Z,5.08
2018-10-06T15:46:32.183Z,20.72
2018-10-06T15:49:00.626Z,10.70
2018-10-06T15:51:29.084Z,8.70
2018-10-06T15:53:57.595Z,43.20
2018-10-06T15:56:25.999Z,27.22
2018-10-06T15:58:54.426Z,22.10
2018-10-06T16:01:22.736Z,10.32
2018-10-06T16:03:51.087Z,8.15
2018-10-06T16:06:19.393Z,9.80
2018-10-06T16:08:48.748Z,12.28
2018-10-06T16:11:19.439Z,18.92
2018-10-06T16:13:50.753Z,10.18
2018-10-06T16:16:20.031Z,7.45
2018-10-06T16:18:48.422Z,9.85
2018-10-06T16:21:16.941Z,8.85
2018-10-06T16:23:46.645Z,5.17
2018-10-06T16:26:18.328Z,9.25
2018-10-06T16:28:47.963Z,10.38
2018-10-06T16:31:16.508Z,8.13
2018-10-06T16:33:46.467Z,11.12
2018-10-06T16:36:15.822Z,12.35
2018-10-06T16:38:45.092Z,11.80
2018-10-06T16:41:14.382Z,13.75
2018-10-06T16:43:42.695Z,11.28
2018-10-06T16:46:11.742Z,9.63
2018-10-06T16:48:40.226Z,10.72
2018-10-06T16:51:10.415Z,8.80
2018-10-06T16:53:42.477Z,11.05
2018-10-06T16:56:11.780Z,10.13
2018-10-06T16:58:43.604Z,13.98
2018-10-06T17:01:12.652Z,19.55
2018-10-06T17:03:43.688Z,13.28
2018-10-06T17:06:12.120Z,18.17
2018-10-06T17:08:41.189Z,8.68
2018-10-06T17:11:09.508Z,15.80
2018-10-06T17:13:37.926Z,15.08
2018-10-06T17:16:06.503Z,11.95
2018-10-06T17:18:34.929Z,12.85
2018-10-06T17:21:03.227Z,12.73
2018-10-06T17:23:31.600Z,15.38
2018-10-06T17:25:59.919Z,15.03
2018-10-06T17:28:28.260Z,15.40
2018-10-06T17:30:58.486Z,7.22
2018-10-06T17:33:26.862Z,10.95
2018-10-06T17:35:55.142Z,9.15
2018-10-06T17:38:25.979Z,12.88
2018-10-06T17:40:54.267Z,8.10
2018-10-06T17:43:22.580Z,9.05
2018-10-06T17:45:51.891Z,9.35
2018-10-06T17:48:20.199Z,9.50
2018-10-06T17:50:48.826Z,15.20
2018-10-06T17:53:17.473Z,19.75
2018-10-06T17:55:45.838Z,16.55
2018-10-06T17:58:14.148Z,14.35
2018-10-06T18:00:42.432Z,13.08
2018-10-06T18:03:10.761Z,13.35
2018-10-06T18:05:39.085Z,14.20
2018-10-06T18:08:14.280Z,12.60
2018-10-06T18:10:42.568Z,13.85
2018-10-06T18:13:11.059Z,14.60
2018-10-06T18:15:39.468Z,11.88
2018-10-06T18:18:07.819Z,13.35
2018-10-06T18:20:36.449Z,18.77
2018-10-06T18:23:04.869Z,22.17
2018-10-06T18:25:33.262Z,18.95
2018-10-06T18:28:01.868Z,17.90
2018-10-06T18:30:30.222Z,21.82
2018-10-06T18:32:58.497Z,18.85
2018-10-06T18:35:26.789Z,12.60
2018-10-06T18:37:55.126Z,13.80
2018-10-06T18:40:23.514Z,15.95
2018-10-06T18:42:51.805Z,21.57
2018-10-06T18:45:20.194Z,20.60
2018-10-06T18:47:48.574Z,23.02
2018-10-06T18:50:16.921Z,25.92
2018-10-06T18:52:45.382Z,16.40
2018-10-06T18:55:13.912Z,21.80
2018-10-06T18:57:43.378Z,22.60
2018-10-06T19:00:11.637Z,25.75
2018-10-06T19:02:39.933Z,15.10
2018-10-06T19:05:08.371Z,16.90
2018-10-06T19:07:36.839Z,13.38
2018-10-06T19:10:05.219Z,30.57
2018-10-06T19:12:34.263Z,18.60
2018-10-06T19:15:02.592Z,16.55
2018-10-06T19:17:31.278Z,15.85
2018-10-06T19:19:59.584Z,20.97
2018-10-06T19:22:28.502Z,19.67
2018-10-06T19:24:57.423Z,18.23
2018-10-06T19:27:25.699Z,15.28
2018-10-06T19:29:53.969Z,18.35
2018-10-06T19:32:23.000Z,23.15
2018-10-06T19:34:52.126Z,15.48
2018-10-06T19:37:21.142Z,17.85
2018-10-06T19:39:50.201Z,16.52
2018-10-06T19:42:18.425Z,16.65
2018-10-06T19:44:46.772Z,23.55
2018-10-06T19:47:15.068Z,21.62
2018-10-06T19:49:43.415Z,17.82
2018-10-06T19:52:12.642Z,16.00
2018-10-06T19:54:41.431Z,18.07
2018-10-06T19:57:09.712Z,17.73
2018-10-06T19:59:38.059Z,20.62
2018-10-06T20:02:06.431Z,14.53
2018-10-06T20:04:34.743Z,23.50
2018-10-06T20:07:03.008Z,17.15
2018-10-06T20:09:31.325Z,18.12
2018-10-06T20:12:00.392Z,16.55
2018-10-06T20:14:29.250Z,14.25
2018-10-06T20:16:57.827Z,17.48
2018-10-06T20:19:26.114Z,16.75
2018-10-06T20:21:54.446Z,12.28
2018-10-06T20:24:23.537Z,14.13
2018-10-06T20:26:51.924Z,17.25
2018-10-06T20:29:20.460Z,12.95
2018-10-06T20:31:48.812Z,16.97
2018-10-06T20:34:17.092Z,22.95
2018-10-06T20:36:45.421Z,19.48
2018-10-06T20:39:14.240Z,15.98
2018-10-06T20:41:43.095Z,19.15
2018-10-06T20:44:11.413Z,20.55
2018-10-06T20:46:39.727Z,21.48
2018-10-06T20:49:08.593Z,20.15
2018-10-06T20:51:36.857Z,20.25
2018-10-06T20:54:05.259Z,25.50
2018-10-06T20:56:33.570Z,20.25
2018-10-06T20:59:02.534Z,20.23
2018-10-06T21:01:30.853Z,23.65
2018-10-06T21:03:59.145Z,27.05
2018-10-06T21:06:27.443Z,24.75
2018-10-06T21:08:55.848Z,24.05
2018-10-06T21:11:24.154Z,23.25
2018-10-06T21:13:52.472Z,25.97
2018-10-06T21:16:20.731Z,24.10
2018-10-06T21:18:49.008Z,26.25
2018-10-06T21:21:17.315Z,27.65
2018-10-06T21:23:45.676Z,28.30
2018-10-06T21:26:13.965Z,31.55
2018-10-06T21:28:42.308Z,31.65
2018-10-06T21:31:10.864Z,27.75
2018-10-06T21:33:39.165Z,40.67
2018-10-06T21:36:07.687Z,40.30
2018-10-06T21:38:36.033Z,31.27
2018-10-06T21:41:04.285Z,31.07
2018-10-06T21:43:32.555Z,31.87
2018-10-06T21:46:00.855Z,34.83
2018-10-06T21:48:30.111Z,35.45
2018-10-06T21:50:58.518Z,49.00
2018-10-06T21:53:27.155Z,39.30
2018-10-06T21:55:55.438Z,39.85
2018-10-06T21:58:23.751Z,42.70
2018-10-06T22:00:57.418Z,46.18
2018-10-06T22:03:25.703Z,51.42
2018-10-06T22:05:54.210Z,49.93
2018-10-06T22:08:22.855Z,57.13
2018-10-06T22:10:51.089Z,51.28
2018-10-06T22:13:19.370Z,52.20
2018-10-06T22:15:47.715Z,54.18
2018-10-06T22:18:16.103Z,55.90
2018-10-06T22:20:44.399Z,59.70
2018-10-06T22:23:12.665Z,62.13
2018-10-06T22:25:40.968Z,61.20
2018-10-06T22:28:09.265Z,67.58
2018-10-06T22:30:37.528Z,69.00
2018-10-06T22:33:05.985Z,67.82
2018-10-06T22:35:34.500Z,70.90
2018-10-06T22:38:02.778Z,73.25
2018-10-06T22:40:31.056Z,67.47
2018-10-06T22:42:59.388Z,73.62
2018-10-06T22:45:27.627Z,68.62
2018-10-06T22:47:55.984Z,71.20
2018-10-06T22:50:24.595Z,71.95
2018-10-06T22:52:53.124Z,68.75
2018-10-06T22:55:21.503Z,64.55
2018-10-06T22:57:49.940Z,78.02
2018-10-06T23:00:19.045Z,78.67
2018-10-06T23:02:47.286Z,74.55
2018-10-06T23:05:15.557Z,75.28
2018-10-06T23:07:43.888Z,72.82
2018-10-06T23:10:12.623Z,84.30
2018-10-06T23:12:40.896Z,87.22
2018-10-06T23:15:09.186Z,77.42
2018-10-06T23:17:37.532Z,79.12
2018-10-06T23:20:05.822Z,78.55
2018-10-06T23:22:35.012Z,74.95
2018-10-06T23:25:04.652Z,77.95
2018-10-06T23:27:32.911Z,79.80
2018-10-06T23:30:01.198Z,77.55
2018-10-06T23:32:29.498Z,85.00
2018-10-06T23:34:57.810Z,76.28
2018-10-06T23:37:26.144Z,82.62
2018-10-06T23:39:54.467Z,76.53
2018-10-06T23:42:22.708Z,80.83
2018-10-06T23:44:51.046Z,83.35
2018-10-06T23:47:19.328Z,77.95
2018-10-06T23:49:47.551Z,86.05
2018-10-06T23:52:15.849Z,83.55
2018-10-06T23:54:44.165Z,88.50
2018-10-06T23:57:12.490Z,85.83
2018-10-06T23:59:40.823Z,86.70
